createdAt,value
2016-09-30T00:01:06.606Z,56.96
2016-09-30T00:02:16.884Z,57.15
2016-09-30T00:03:26.879Z,57.15
2016-09-30T00:04:36.870Z,57.24
2016-09-30T00:05:47.166Z,57.24
2016-09-30T00:06:57.494Z,57.24
2016-09-30T00:08:07.782Z,57.15
2016-09-30T00:09:17.779Z,57.15
2016-09-30T00:10:28.099Z,57.24
2016-09-30T00:11:38.388Z,57.15
2016-09-30T00:12:48.684Z,57.15
2016-09-30T00:13:58.984Z,57.15
2016-09-30T00:15:09.289Z,56.96
2016-09-30T00:16:19.598Z,56.86
2016-09-30T00:17:29.576Z,56.86
2016-09-30T00:18:39.865Z,56.86
2016-09-30T00:19:50.163Z,56.96
2016-09-30T00:21:00.435Z,56.96
2016-09-30T00:22:10.445Z,56.86
2016-09-30T00:23:20.762Z,57.15
2016-09-30T00:24:31.061Z,56.93
2016-09-30T00:25:41.374Z,56.96
2016-09-30T00:26:51.688Z,57.12
2016-09-30T00:28:02.005Z,56.96
2016-09-30T00:29:12.308Z,57.12
2016-09-30T00:30:22.622Z,57.03
2016-09-30T00:31:32.608Z,56.93
2016-09-30T00:32:42.889Z,56.93
2016-09-30T00:33:52.872Z,57.12
2016-09-30T00:35:03.158Z,57.03
2016-09-30T00:36:13.474Z,56.83
2016-09-30T00:37:23.773Z,56.93
2016-09-30T00:38:34.064Z,57.03
2016-09-30T00:39:44.365Z,56.83
2016-09-30T00:40:54.338Z,56.83
2016-09-30T00:42:04.649Z,57.03
2016-09-30T00:43:14.630Z,56.96
2016-09-30T00:44:24.927Z,56.83
2016-09-30T00:45:34.900Z,56.83
2016-09-30T00:46:45.186Z,57.03
2016-09-30T00:47:55.479Z,57.12
2016-09-30T00:49:05.153Z,57.21
2016-09-30T00:50:15.458Z,56.93
2016-09-30T00:51:25.753Z,57.12
2016-09-30T00:52:35.752Z,57.21
2016-09-30T00:53:46.042Z,57.21
2016-09-30T00:54:56.333Z,56.83
2016-09-30T00:56:06.330Z,57.21
2016-09-30T00:57:16.307Z,56.93
2016-09-30T00:58:26.284Z,56.93
2016-09-30T00:59:36.262Z,57.12
2016-09-30T01:00:46.566Z,56.93
2016-09-30T01:01:56.862Z,56.93
2016-09-30T01:03:06.573Z,57.12
2016-09-30T01:04:16.876Z,57.12
2016-09-30T01:05:26.858Z,56.83
2016-09-30T01:06:36.859Z,57.12
2016-09-30T01:07:46.543Z,56.83
2016-09-30T01:08:56.527Z,56.83
2016-09-30T01:10:06.825Z,56.93
2016-09-30T01:11:17.122Z,57.12
2016-09-30T01:12:27.124Z,57.03
2016-09-30T01:19:58.171Z,57.03
2016-09-30T01:21:08.472Z,57.03
2016-09-30T01:22:18.458Z,56.93
2016-09-30T01:23:28.751Z,56.93
2016-09-30T01:24:39.023Z,56.93
2016-09-30T01:25:48.718Z,56.93
2016-09-30T01:26:59.005Z,57.12
2016-09-30T01:28:09.307Z,57.03
2016-09-30T01:29:19.600Z,56.93
2016-09-30T01:30:29.585Z,56.93
2016-09-30T01:31:39.261Z,57.03
2016-09-30T01:32:49.557Z,57.09
2016-09-30T01:33:59.872Z,56.71
2016-09-30T01:35:09.871Z,56.81
2016-09-30T01:36:20.160Z,57.09
2016-09-30T01:37:30.455Z,56.9
2016-09-30T01:38:40.748Z,56.81
2016-09-30T01:39:50.722Z,56.9
2016-09-30T01:41:01.015Z,56.9
2016-09-30T01:42:11.293Z,56.71
2016-09-30T01:43:21.263Z,56.9
2016-09-30T01:44:30.935Z,56.99
2016-09-30T01:45:40.910Z,56.9
2016-09-30T01:46:51.193Z,56.9
2016-09-30T01:48:01.186Z,56.99
2016-09-30T01:49:11.471Z,56.99
2016-09-30T01:50:21.758Z,56.9
2016-09-30T01:51:31.736Z,56.99
2016-09-30T01:52:42.030Z,56.99
2016-09-30T01:53:52.324Z,56.9
2016-09-30T01:55:02.331Z,56.81
2016-09-30T01:56:12.639Z,56.9
2016-09-30T01:57:22.619Z,56.99
2016-09-30T01:58:32.613Z,56.81
2016-09-30T01:59:42.629Z,56.81
2016-09-30T02:00:52.924Z,56.81
2016-09-30T02:02:02.896Z,56.81
2016-09-30T02:03:13.183Z,56.71
2016-09-30T02:04:23.175Z,56.81
2016-09-30T02:05:33.456Z,56.81
2016-09-30T02:06:43.430Z,56.81
2016-09-30T02:07:53.709Z,56.81
2016-09-30T02:09:03.691Z,56.71
2016-09-30T02:10:13.983Z,56.71
2016-09-30T02:11:24.255Z,56.71
2016-09-30T02:12:34.535Z,57.09
2016-09-30T02:13:44.837Z,56.9
2016-09-30T02:14:55.135Z,56.9
2016-09-30T02:16:05.122Z,56.9
2016-09-30T02:17:15.407Z,56.9
2016-09-30T02:18:25.388Z,56.81
2016-09-30T02:19:35.685Z,56.97
2016-09-30T02:20:45.357Z,56.9
2016-09-30T02:21:55.646Z,56.81
2016-09-30T02:23:05.948Z,56.71
2016-09-30T02:24:15.979Z,56.9
2016-09-30T02:25:25.974Z,56.81
2016-09-30T02:26:36.263Z,56.77
2016-09-30T02:27:46.553Z,56.9
2016-09-30T02:28:56.850Z,56.99
2016-09-30T02:30:07.138Z,56.71
2016-09-30T02:31:17.429Z,56.61
2016-09-30T02:32:27.413Z,56.71
2016-09-30T02:33:37.080Z,56.77
2016-09-30T02:34:46.772Z,56.81
2016-09-30T02:35:57.066Z,56.71
2016-09-30T02:37:06.772Z,56.9
2016-09-30T02:38:17.048Z,56.71
2016-09-30T02:39:27.020Z,56.71
2016-09-30T02:40:36.998Z,56.81
2016-09-30T02:41:47.284Z,56.71
2016-09-30T02:42:57.564Z,56.61
2016-09-30T02:44:07.536Z,56.81
2016-09-30T02:45:17.808Z,56.81
2016-09-30T02:46:28.114Z,56.61
2016-09-30T02:47:38.400Z,56.71
2016-09-30T02:48:48.072Z,56.81
2016-09-30T02:49:57.741Z,56.99
2016-09-30T02:51:07.717Z,56.81
2016-09-30T02:52:17.683Z,56.81
2016-09-30T02:53:27.645Z,56.77
2016-09-30T02:54:37.943Z,56.81
2016-09-30T02:55:48.232Z,56.97
2016-09-30T02:56:57.896Z,56.77
2016-09-30T02:58:08.187Z,56.77
2016-09-30T02:59:18.164Z,56.61
2016-09-30T03:00:28.444Z,56.71
2016-09-30T03:32:20.322Z,56.23
2016-09-30T03:33:30.285Z,56.13
2016-09-30T03:34:40.240Z,56.96
2016-09-30T03:35:49.915Z,57.56
2016-09-30T03:36:59.894Z,57.65
2016-09-30T03:38:09.877Z,58.42
2016-09-30T03:39:20.161Z,58.04
2016-09-30T03:40:30.128Z,58.8
2016-09-30T03:41:39.795Z,59.19
2016-09-30T03:42:50.086Z,58.73
2016-09-30T03:44:00.369Z,58.54
2016-09-30T03:45:10.035Z,59.22
2016-09-30T03:46:20.361Z,58.83
2016-09-30T03:47:30.028Z,59.05
2016-09-30T03:48:40.315Z,58.58
2016-09-30T03:49:50.589Z,58.38
2016-09-30T03:51:00.263Z,58.12
2016-09-30T03:52:10.556Z,58.32
2016-09-30T03:53:20.840Z,58.12
2016-09-30T03:54:30.827Z,57.93
2016-09-30T03:55:41.119Z,57.93
2016-09-30T03:56:51.104Z,57.75
2016-09-30T03:58:00.779Z,58.06
2016-09-30T03:59:10.760Z,57.39
2016-09-30T04:00:21.036Z,57.68
2016-09-30T04:01:31.335Z,57.68
2016-09-30T04:02:41.626Z,57.1
2016-09-30T04:03:51.901Z,57.2
2016-09-30T04:05:01.857Z,57.39
2016-09-30T04:06:11.840Z,57.29
2016-09-30T04:07:21.805Z,57.48
2016-09-30T04:08:32.089Z,57.2
2016-09-30T04:09:41.761Z,57.29
2016-09-30T04:10:52.068Z,57.29
2016-09-30T04:12:02.365Z,57.58
2016-09-30T04:13:12.069Z,57.51
2016-09-30T04:14:22.052Z,57.61
2016-09-30T04:15:32.343Z,57.61
2016-09-30T04:16:42.636Z,57.51
2016-09-30T04:17:52.621Z,57.32
2016-09-30T04:19:02.903Z,57.42
2016-09-30T04:20:12.897Z,57.61
2016-09-30T04:21:23.213Z,57.32
2016-09-30T04:22:32.889Z,57.51
2016-09-30T04:23:42.571Z,57.51
2016-09-30T04:24:52.857Z,57.42
2016-09-30T04:26:02.838Z,57.61
2016-09-30T04:27:12.811Z,57.61
2016-09-30T04:28:23.118Z,57.23
2016-09-30T04:29:33.098Z,57.61
2016-09-30T04:30:43.392Z,57.61
2016-09-30T04:31:53.684Z,57.51
2016-09-30T04:33:03.977Z,57.7
2016-09-30T04:34:13.962Z,57.23
2016-09-30T04:35:23.934Z,57.32
2016-09-30T04:36:33.944Z,57.61
2016-09-30T04:37:44.246Z,57.7
2016-09-30T04:38:54.233Z,57.42
2016-09-30T04:40:04.517Z,57.23
2016-09-30T04:41:14.497Z,56.84
2016-09-30T04:42:24.829Z,57.23
2016-09-30T04:43:34.817Z,56.75
2016-09-30T04:44:44.791Z,56.75
2016-09-30T04:45:54.759Z,57.23
2016-09-30T04:47:04.750Z,57.23
2016-09-30T04:48:14.719Z,57.23
2016-09-30T04:49:25.044Z,57.04
2016-09-30T04:50:35.041Z,57.04
2016-09-30T04:51:45.337Z,57.04
2016-09-30T04:52:55.620Z,56.94
2016-09-30T04:54:05.915Z,56.84
2016-09-30T04:55:16.201Z,56.84
2016-09-30T04:56:26.193Z,56.75
2016-09-30T04:57:36.170Z,56.75
2016-09-30T04:58:45.841Z,57.04
2016-09-30T04:59:56.128Z,56.84
2016-09-30T05:01:06.434Z,57.04
2016-09-30T05:02:16.413Z,56.75
2016-09-30T05:03:26.083Z,56.75
2016-09-30T05:04:36.375Z,56.94
2016-09-30T05:05:46.667Z,56.94
2016-09-30T05:06:56.960Z,56.84
2016-09-30T05:08:06.950Z,56.77
2016-09-30T05:09:16.922Z,56.59
2016-09-30T05:10:27.214Z,56.59
2016-09-30T05:11:36.565Z,56.59
2016-09-30T05:12:46.540Z,56.3
2016-09-30T05:13:56.823Z,56.39
2016-09-30T05:15:06.822Z,56.49
2016-09-30T05:16:17.125Z,56.39
2016-09-30T05:17:27.401Z,56.49
2016-09-30T05:18:37.375Z,56.3
2016-09-30T05:19:47.353Z,56.39
2016-09-30T05:20:57.339Z,56.49
2016-09-30T05:22:07.632Z,56.39
2016-09-30T05:23:17.937Z,56.23
2016-09-30T05:24:28.230Z,56.01
2016-09-30T05:25:38.510Z,56.23
2016-09-30T05:26:48.803Z,56.23
2016-09-30T05:27:58.788Z,55.94
2016-09-30T05:29:08.769Z,56.42
2016-09-30T05:30:18.737Z,56.42
2016-09-30T05:31:28.725Z,56.23
2016-09-30T05:32:39.029Z,56.04
2016-09-30T05:33:49.003Z,56.42
2016-09-30T05:34:59.300Z,56.32
2016-09-30T05:36:09.590Z,56.45
2016-09-30T05:37:19.260Z,56.54
2016-09-30T05:38:29.251Z,56.45
2016-09-30T05:39:39.229Z,56.54
2016-09-30T05:40:49.515Z,56.45
2016-09-30T05:41:59.795Z,56.45
2016-09-30T05:43:09.768Z,56.45
2016-09-30T05:44:20.064Z,56.35
2016-09-30T05:45:30.074Z,56.26
2016-09-30T05:46:40.037Z,56.35
2016-09-30T05:47:49.719Z,56.35
2016-09-30T05:48:59.696Z,56.09
2016-09-30T05:50:09.696Z,56.29
2016-09-30T05:51:19.693Z,56.38
2016-09-30T05:52:29.982Z,56.38
2016-09-30T05:53:40.267Z,56.48
2016-09-30T05:54:50.560Z,56.48
2016-09-30T05:56:00.530Z,56.57
2016-09-30T05:57:10.831Z,56.29
2016-09-30T05:58:20.494Z,55.93
2016-09-30T05:59:30.796Z,55.74
2016-09-30T06:00:40.767Z,55.74
2016-09-30T06:01:51.064Z,56.7
2016-09-30T06:03:01.360Z,56.31
2016-09-30T06:04:11.662Z,55.93
2016-09-30T06:05:21.954Z,56.22
2016-09-30T06:06:32.256Z,56.15
2016-09-30T06:07:42.248Z,55.47
2016-09-30T06:08:52.540Z,55.67
2016-09-30T06:10:02.857Z,55.67
2016-09-30T06:11:13.144Z,55.6
2016-09-30T06:12:23.458Z,55.79
2016-09-30T06:13:33.437Z,55.6
2016-09-30T06:14:43.414Z,55.53
2016-09-30T06:15:53.400Z,55.91
2016-09-30T06:17:03.119Z,55.44
2016-09-30T06:18:13.422Z,55.73
2016-09-30T06:19:23.404Z,55.91
2016-09-30T06:20:33.378Z,55.94
2016-09-30T06:21:43.360Z,55.56
2016-09-30T06:22:53.649Z,55.37
2016-09-30T06:24:03.927Z,55.66
2016-09-30T06:25:14.224Z,55.4
2016-09-30T06:26:24.534Z,55.4
2016-09-30T06:27:34.822Z,55.49
2016-09-30T06:28:44.804Z,55.49
2016-09-30T06:29:54.791Z,55.33
2016-09-30T06:31:05.087Z,55.23
2016-09-30T06:32:15.059Z,55.23
2016-09-30T06:33:25.356Z,55.52
2016-09-30T06:34:35.017Z,55.52
2016-09-30T06:35:45.298Z,55.65
2016-09-30T06:36:54.991Z,55.74
2016-09-30T06:38:05.278Z,56.12
2016-09-30T06:39:15.613Z,56.12
2016-09-30T06:40:25.597Z,55.83
2016-09-30T06:41:35.582Z,55.74
2016-09-30T06:42:45.874Z,55.83
2016-09-30T06:43:56.177Z,55.93
2016-09-30T06:45:06.165Z,55.93
2016-09-30T06:46:16.154Z,56.32
2016-09-30T06:47:26.455Z,55.93
2016-09-30T06:48:36.749Z,55.96
2016-09-30T06:49:47.047Z,56.73
2016-09-30T06:50:57.318Z,56.41
2016-09-30T06:52:07.300Z,56.6
2016-09-30T06:53:17.586Z,56.8
2016-09-30T06:54:27.256Z,56.7
2016-09-30T06:55:37.247Z,56.12
2016-09-30T06:56:46.925Z,56.51
2016-09-30T06:57:56.908Z,56.05
2016-09-30T06:59:07.202Z,56.44
2016-09-30T07:00:17.181Z,56.82
2016-09-30T07:01:27.477Z,56.73
2016-09-30T07:02:37.771Z,56.54
2016-09-30T07:03:48.066Z,56.25
2016-09-30T07:04:57.747Z,55.96
2016-09-30T07:06:07.738Z,55.99
2016-09-30T07:07:18.025Z,56.66
2016-09-30T07:08:28.019Z,56.85
2016-09-30T07:09:37.697Z,56.82
2016-09-30T07:10:47.374Z,56.73
2016-09-30T07:11:57.691Z,56.15
2016-09-30T07:13:08.012Z,57.05
2016-09-30T07:14:17.983Z,56.82
2016-09-30T07:15:27.961Z,56.54
2016-09-30T07:16:38.258Z,56.47
2016-09-30T07:17:48.242Z,56.85
2016-09-30T07:18:58.219Z,56.76
2016-09-30T07:20:08.388Z,56.09
2016-09-30T07:21:18.699Z,56.27
2016-09-30T07:22:29.011Z,56.66
2016-09-30T07:23:39.293Z,56.66
2016-09-30T07:24:49.265Z,56.57
2016-09-30T07:25:59.561Z,55.89
2016-09-30T07:27:09.573Z,56.85
2016-09-30T07:28:19.386Z,56.57
2016-09-30T07:29:29.401Z,56.18
2016-09-30T07:30:39.393Z,56.69
2016-09-30T07:31:49.404Z,56.4
2016-09-30T07:32:59.065Z,55.82
2016-09-30T07:34:09.351Z,55.66
2016-09-30T07:35:18.413Z,55.76
2016-09-30T07:36:28.701Z,55.85
2016-09-30T07:37:38.682Z,55.85
2016-09-30T07:38:48.973Z,55.85
2016-09-30T07:39:58.949Z,55.98
2016-09-30T07:41:09.251Z,55.88
2016-09-30T07:42:19.559Z,55.98
2016-09-30T07:43:29.841Z,56.94
2016-09-30T07:44:40.142Z,56.52
2016-09-30T07:45:50.432Z,56.16
2016-09-30T07:47:00.410Z,55.78
2016-09-30T07:48:10.704Z,56.26
2016-09-30T07:49:21.007Z,56.07
2016-09-30T07:50:31.309Z,55.98
2016-09-30T07:51:41.006Z,55.9
2016-09-30T07:52:51.302Z,55.9
2016-09-30T07:54:01.290Z,55.9
2016-09-30T07:55:11.585Z,55.9
2016-09-30T07:56:21.593Z,55.9
2016-09-30T07:57:31.900Z,56
2016-09-30T07:58:41.580Z,56.1
2016-09-30T07:59:51.924Z,56.2
2016-09-30T08:01:01.921Z,56
2016-09-30T08:02:11.931Z,56.1
2016-09-30T08:03:21.925Z,56.03
2016-09-30T08:04:31.921Z,56.22
2016-09-30T08:05:41.622Z,56.22
2016-09-30T08:06:51.954Z,55.74
2016-09-30T08:08:01.969Z,55.65
2016-09-30T08:09:12.260Z,55.74
2016-09-30T08:10:22.553Z,55.55
2016-09-30T08:11:32.545Z,56.05
2016-09-30T08:12:42.536Z,55.87
2016-09-30T08:13:52.858Z,55.47
2016-09-30T08:15:03.152Z,55.47
2016-09-30T08:16:13.467Z,56.05
2016-09-30T08:17:22.833Z,55.96
2016-09-30T08:18:32.827Z,55.99
2016-09-30T08:19:43.117Z,55.99
2016-09-30T08:20:53.108Z,55.7
2016-09-30T08:22:02.780Z,56.09
2016-09-30T08:23:12.790Z,55.99
2016-09-30T08:24:22.474Z,55.6
2016-09-30T08:25:32.775Z,55.63
2016-09-30T08:26:43.069Z,55.73
2016-09-30T08:27:53.058Z,55.82
2016-09-30T08:29:03.040Z,55.73
2016-09-30T08:30:13.341Z,55.73
2016-09-30T08:31:23.321Z,55.94
2016-09-30T08:32:33.325Z,55.66
2016-09-30T08:33:43.635Z,55.85
2016-09-30T08:34:53.944Z,55.85
2016-09-30T08:36:04.231Z,55.66
2016-09-30T08:37:14.246Z,55.78
2016-09-30T08:38:24.244Z,55.68
2016-09-30T08:39:34.543Z,55.49
2016-09-30T08:40:44.830Z,55.58
2016-09-30T08:41:55.126Z,55.58
2016-09-30T08:43:05.120Z,55.68
2016-09-30T08:44:15.411Z,55.52
2016-09-30T08:45:25.752Z,55.32
2016-09-30T08:46:35.755Z,55.42
2016-09-30T08:47:45.737Z,55.52
2016-09-30T08:48:55.743Z,55.44
2016-09-30T08:50:05.436Z,54.96
2016-09-30T08:51:14.807Z,55.26
2016-09-30T08:52:24.182Z,55.26
2016-09-30T08:53:34.166Z,55.16
2016-09-30T08:54:43.533Z,55.67
2016-09-30T08:55:52.912Z,55.18
2016-09-30T08:57:02.941Z,55.57
2016-09-30T08:58:12.659Z,55.21
2016-09-30T08:59:22.976Z,55.11
2016-09-30T09:00:33.260Z,55.41
2016-09-30T09:01:43.261Z,55.6
2016-09-30T09:02:53.558Z,55.6
2016-09-30T09:04:03.857Z,55.5
2016-09-30T09:05:13.847Z,55.02
2016-09-30T09:06:23.834Z,55.21
2016-09-30T09:07:34.141Z,55.73
2016-09-30T09:08:44.117Z,55.14
2016-09-30T09:09:54.123Z,55.24
2016-09-30T09:11:04.121Z,55.53
2016-09-30T09:12:14.106Z,55.73
2016-09-30T09:13:24.090Z,55.46
2016-09-30T09:14:33.799Z,55.55
2016-09-30T09:15:44.097Z,55.75
2016-09-30T09:16:54.319Z,55.55
2016-09-30T09:18:04.632Z,55.55
2016-09-30T09:19:14.302Z,55.75
2016-09-30T09:20:24.591Z,55.75
2016-09-30T09:21:34.636Z,55.49
2016-09-30T09:22:44.929Z,55.68
2016-09-30T09:23:55.250Z,55.49
2016-09-30T09:25:05.533Z,55.49
2016-09-30T09:26:15.852Z,55.58
2016-09-30T09:27:26.159Z,55.58
2016-09-30T09:28:35.842Z,55.58
2016-09-30T09:29:45.849Z,55.61
2016-09-30T09:30:56.155Z,55.8
2016-09-30T09:32:05.828Z,55.71
2016-09-30T09:33:15.813Z,55.8
2016-09-30T09:34:25.802Z,55.71
2016-09-30T09:35:36.094Z,55.8
2016-09-30T09:36:46.094Z,55.83
2016-09-30T09:37:55.771Z,55.64
2016-09-30T09:39:05.759Z,55.64
2016-09-30T09:40:16.068Z,55.44
2016-09-30T09:41:25.741Z,55.64
2016-09-30T09:42:36.051Z,55.44
2016-09-30T09:43:46.633Z,55.25
2016-09-30T09:44:56.958Z,55.54
2016-09-30T09:46:07.254Z,55.66
2016-09-30T09:47:17.257Z,55.57
2016-09-30T09:48:27.552Z,55.37
2016-09-30T09:49:37.232Z,55.5
2016-09-30T09:50:47.239Z,55.69
2016-09-30T09:51:57.538Z,55.69
2016-09-30T09:53:07.542Z,55.6
2016-09-30T09:54:17.844Z,55.5
2016-09-30T09:55:27.839Z,55.69
2016-09-30T09:56:37.220Z,55.69
2016-09-30T09:57:47.512Z,55.79
2016-09-30T09:58:57.503Z,55.72
2016-09-30T10:00:07.504Z,55.01
2016-09-30T10:01:17.478Z,55.13
2016-09-30T10:02:27.479Z,55.04
2016-09-30T10:03:37.765Z,54.65
2016-09-30T10:04:48.073Z,54.94
2016-09-30T10:05:58.300Z,55.07
2016-09-30T10:07:07.997Z,55.07
2016-09-30T10:08:18.002Z,55.07
2016-09-30T10:09:27.683Z,55.07
2016-09-30T10:10:37.667Z,55.16
2016-09-30T10:11:47.652Z,55.09
2016-09-30T10:12:57.660Z,54.77
2016-09-30T10:14:07.980Z,55.09
2016-09-30T10:15:17.981Z,55.29
2016-09-30T10:16:28.276Z,55.09
2016-09-30T10:17:38.582Z,55.09
2016-09-30T10:18:48.587Z,54.9
2016-09-30T10:19:58.890Z,54.99
2016-09-30T10:21:09.192Z,55.09
2016-09-30T10:22:19.480Z,55.09
2016-09-30T10:23:29.777Z,55.12
2016-09-30T10:24:39.777Z,55.02
2016-09-30T10:25:50.080Z,54.93
2016-09-30T10:27:00.400Z,55.02
2016-09-30T10:28:10.733Z,55.02
2016-09-30T10:29:20.725Z,55.02
2016-09-30T10:30:30.732Z,54.93
2016-09-30T10:31:41.032Z,54.93
2016-09-30T10:32:51.030Z,55.15
2016-09-30T10:34:01.018Z,55.73
2016-09-30T10:35:11.052Z,55.32
2016-09-30T10:36:21.359Z,55.22
2016-09-30T10:37:31.356Z,55.34
2016-09-30T10:38:41.353Z,55.32
2016-09-30T10:39:51.680Z,55.54
2016-09-30T10:41:01.987Z,55.83
2016-09-30T10:42:12.298Z,54.85
2016-09-30T10:43:22.616Z,55.05
2016-09-30T10:44:32.917Z,55.15
2016-09-30T10:45:43.215Z,55.15
2016-09-30T10:46:52.916Z,54.79
2016-09-30T10:48:03.207Z,54.98
2016-09-30T10:49:13.503Z,54.79
2016-09-30T10:50:24.052Z,54.79
2016-09-30T10:51:34.158Z,54.79
2016-09-30T10:52:44.168Z,54.61
2016-09-30T10:53:54.460Z,54.91
2016-09-30T10:55:04.697Z,54.91
2016-09-30T10:56:14.693Z,54.71
2016-09-30T10:57:25.010Z,54.61
2016-09-30T10:58:35.314Z,54.74
2016-09-30T10:59:45.313Z,54.74
2016-09-30T11:00:55.361Z,54.54
2016-09-30T11:02:05.678Z,54.57
2016-09-30T11:03:16.009Z,54.67
2016-09-30T11:04:25.995Z,54.57
2016-09-30T11:05:36.005Z,54.67
2016-09-30T11:06:46.305Z,54.77
2016-09-30T11:07:56.287Z,54.57
2016-09-30T11:09:06.597Z,54.67
2016-09-30T11:10:16.295Z,54.67
2016-09-30T11:11:26.631Z,54.96
2016-09-30T11:12:36.933Z,54.57
2016-09-30T11:13:46.932Z,54.57
2016-09-30T11:14:56.651Z,54.67
2016-09-30T11:16:06.644Z,54.67
2016-09-30T11:17:16.640Z,54.67
2016-09-30T11:18:26.957Z,54.57
2016-09-30T11:19:36.644Z,54.69
2016-09-30T11:20:46.636Z,54.69
2016-09-30T11:21:56.938Z,54.67
2016-09-30T11:23:07.253Z,54.67
2016-09-30T11:24:17.544Z,54.57
2016-09-30T11:25:27.517Z,54.79
2016-09-30T11:26:39.342Z,54.79
2016-09-30T11:27:51.974Z,54.6
2016-09-30T11:29:02.371Z,54.79
2016-09-30T11:30:12.670Z,54.6
2016-09-30T11:31:22.970Z,54.6
2016-09-30T11:32:32.974Z,54.69
2016-09-30T11:33:42.667Z,54.6
2016-09-30T11:34:52.967Z,54.69
2016-09-30T11:36:02.964Z,54.69
2016-09-30T11:37:12.661Z,54.6
2016-09-30T11:38:22.961Z,54.6
2016-09-30T11:39:33.296Z,54.6
2016-09-30T11:40:43.603Z,54.72
2016-09-30T11:41:53.615Z,54.82
2016-09-30T11:43:03.918Z,54.82
2016-09-30T11:44:13.921Z,54.85
2016-09-30T11:45:24.232Z,54.62
2016-09-30T11:46:33.913Z,54.62
2016-09-30T11:47:44.209Z,54.62
2016-09-30T11:48:54.517Z,54.72
2016-09-30T11:50:04.234Z,54.72
2016-09-30T11:51:14.245Z,54.72
2016-09-30T11:52:24.246Z,54.82
2016-09-30T11:53:34.563Z,54.85
2016-09-30T11:54:44.555Z,54.55
2016-09-30T11:55:54.871Z,54.75
2016-09-30T11:57:04.863Z,54.85
2016-09-30T11:58:15.134Z,54.65
2016-09-30T11:59:25.437Z,54.65
2016-09-30T12:00:35.125Z,54.55
2016-09-30T12:01:45.136Z,54.75
2016-09-30T12:02:54.830Z,54.91
2016-09-30T12:04:04.513Z,55.01
2016-09-30T12:05:14.565Z,54.91
2016-09-30T12:06:24.929Z,54.91
2016-09-30T12:07:35.229Z,54.82
2016-09-30T12:08:45.224Z,54.91
2016-09-30T12:09:55.223Z,54.43
2016-09-30T12:11:05.534Z,54.55
2016-09-30T12:12:15.794Z,54.36
2016-09-30T12:13:26.112Z,54.75
2016-09-30T12:14:36.445Z,54.46
2016-09-30T12:15:46.131Z,54.46
2016-09-30T12:16:56.410Z,54.46
2016-09-30T12:18:06.409Z,54.36
2016-09-30T12:19:16.727Z,54.55
2016-09-30T12:20:26.719Z,54.75
2016-09-30T12:21:37.019Z,54.85
2016-09-30T12:22:47.010Z,54.75
2016-09-30T12:23:57.334Z,54.65
2016-09-30T12:25:07.645Z,54.85
2016-09-30T12:26:17.662Z,54.46
2016-09-30T12:27:27.341Z,54.55
2016-09-30T12:28:37.349Z,54.46
2016-09-30T12:29:47.662Z,54.65
2016-09-30T12:30:57.042Z,55.04
2016-09-30T12:32:07.335Z,54.65
2016-09-30T12:33:17.332Z,54.85
2016-09-30T12:34:27.410Z,54.75
2016-09-30T12:35:37.717Z,54.85
2016-09-30T12:36:47.417Z,54.75
2016-09-30T12:37:57.724Z,54.75
2016-09-30T12:39:08.029Z,54.75
2016-09-30T12:40:18.031Z,54.55
2016-09-30T12:41:28.043Z,54.55
2016-09-30T12:42:38.031Z,54.65
2016-09-30T12:43:48.045Z,54.85
2016-09-30T12:44:58.359Z,54.75
2016-09-30T12:46:08.061Z,54.75
2016-09-30T12:47:17.738Z,54.65
2016-09-30T12:48:27.730Z,54.75
2016-09-30T12:49:37.721Z,54.65
2016-09-30T12:50:48.058Z,54.55
2016-09-30T12:51:57.738Z,54.75
2016-09-30T12:53:08.037Z,54.55
2016-09-30T12:54:18.034Z,54.65
2016-09-30T12:55:28.039Z,54.75
2016-09-30T12:56:38.351Z,54.65
2016-09-30T12:57:48.674Z,54.75
2016-09-30T12:58:58.977Z,54.65
2016-09-30T13:00:09.271Z,54.65
2016-09-30T13:01:18.968Z,54.65
2016-09-30T13:02:28.639Z,54.85
2016-09-30T13:03:38.622Z,54.94
2016-09-30T13:04:48.626Z,54.85
2016-09-30T13:05:58.929Z,54.75
2016-09-30T13:07:09.242Z,54.75
2016-09-30T13:08:19.544Z,54.75
2016-09-30T13:09:29.855Z,54.85
2016-09-30T13:10:39.851Z,54.85
2016-09-30T13:11:50.159Z,54.65
2016-09-30T13:13:00.453Z,54.85
2016-09-30T13:14:10.454Z,54.68
2016-09-30T13:15:20.781Z,54.77
2016-09-30T13:16:30.786Z,54.87
2016-09-30T13:17:40.491Z,54.55
2016-09-30T13:18:50.807Z,54.75
2016-09-30T13:20:00.520Z,54.55
2016-09-30T13:21:10.546Z,54.75
2016-09-30T13:22:20.850Z,54.75
2016-09-30T13:23:30.526Z,54.75
2016-09-30T13:24:40.855Z,54.75
2016-09-30T13:25:50.536Z,54.75
2016-09-30T13:27:00.836Z,54.65
2016-09-30T13:28:10.861Z,54.75
2016-09-30T13:29:21.168Z,54.77
2016-09-30T13:30:31.471Z,54.77
2016-09-30T13:31:41.788Z,54.75
2016-09-30T13:32:51.775Z,54.77
2016-09-30T13:34:01.779Z,54.77
2016-09-30T13:35:11.159Z,54.77
2016-09-30T13:36:21.143Z,54.77
2016-09-30T13:37:31.444Z,54.97
2016-09-30T13:38:41.448Z,54.87
2016-09-30T13:39:51.769Z,54.77
2016-09-30T13:41:01.473Z,55.04
2016-09-30T13:42:11.479Z,54.97
2016-09-30T13:43:21.190Z,55.04
2016-09-30T13:44:31.203Z,55.14
2016-09-30T13:45:40.890Z,55.14
2016-09-30T13:46:51.213Z,55.24
2016-09-30T13:48:01.517Z,55.33
2016-09-30T13:49:11.863Z,56.02
2016-09-30T13:50:21.855Z,55.9
2016-09-30T13:51:31.869Z,55.9
2016-09-30T13:52:41.584Z,55.99
2016-09-30T13:53:51.883Z,55.99
2016-09-30T13:55:01.878Z,55.9
2016-09-30T13:56:12.188Z,55.38
2016-09-30T13:57:22.202Z,55.67
2016-09-30T13:58:32.511Z,55.96
2016-09-30T13:59:42.829Z,55.57
2016-09-30T14:00:52.820Z,55.65
2016-09-30T14:02:02.812Z,55.94
2016-09-30T14:03:12.831Z,55.65
2016-09-30T14:04:22.865Z,55.94
2016-09-30T14:05:32.857Z,55.74
2016-09-30T14:06:42.854Z,55.71
2016-09-30T14:07:52.537Z,55.52
2016-09-30T14:09:02.536Z,55.71
2016-09-30T14:10:12.837Z,55.52
2016-09-30T14:11:23.140Z,55.22
2016-09-30T14:12:33.146Z,55.22
2016-09-30T14:13:43.151Z,54.77
2016-09-30T14:14:53.471Z,54.77
2016-09-30T14:16:03.787Z,54.57
2016-09-30T14:17:14.113Z,54.6
2016-09-30T14:18:23.798Z,54.79
2016-09-30T14:19:33.813Z,54.6
2016-09-30T14:20:43.491Z,54.89
2016-09-30T14:21:53.225Z,55.06
2016-09-30T14:23:03.252Z,55.35
2016-09-30T14:24:13.258Z,55.22
2016-09-30T14:25:23.258Z,55.13
2016-09-30T14:26:33.561Z,55.91
2016-09-30T14:27:43.595Z,55.71
2016-09-30T14:28:53.604Z,56.1
2016-09-30T14:30:03.916Z,55.4
2016-09-30T14:31:14.222Z,55.49
2016-09-30T14:32:24.519Z,55.59
2016-09-30T14:33:34.522Z,55.76
2016-09-30T14:34:44.530Z,55.3
2016-09-30T14:35:54.218Z,54.81
2016-09-30T14:37:04.226Z,54.42
2016-09-30T14:38:14.529Z,54.64
2016-09-30T14:39:24.533Z,54.64
2016-09-30T14:40:34.521Z,54.74
2016-09-30T14:41:44.529Z,54.74
2016-09-30T14:42:54.537Z,54.93
2016-09-30T14:44:04.531Z,54.83
2016-09-30T14:45:14.527Z,55.3
2016-09-30T14:46:24.547Z,55.88
2016-09-30T14:47:34.221Z,55.88
2016-09-30T14:48:44.227Z,55.57
2016-09-30T14:49:54.530Z,56.05
2016-09-30T14:51:04.524Z,55.86
2016-09-30T14:52:14.513Z,55.83
2016-09-30T14:53:24.220Z,56.41
2016-09-30T14:54:34.520Z,56.32
2016-09-30T14:55:44.223Z,56.29
2016-09-30T14:56:54.216Z,56.38
2016-09-30T14:58:04.207Z,56.26
2016-09-30T14:59:13.903Z,56.75
2016-09-30T15:00:23.915Z,56.36
2016-09-30T15:01:34.222Z,56.36
2016-09-30T15:02:44.259Z,56.56
2016-09-30T15:03:53.968Z,56.14
2016-09-30T15:05:03.700Z,56.62
2016-09-30T15:06:13.389Z,55.94
2016-09-30T15:07:23.366Z,56.33
2016-09-30T15:08:32.758Z,55.94
2016-09-30T15:09:42.456Z,56.92
2016-09-30T15:10:52.460Z,56.52
2016-09-30T15:12:02.157Z,56.43
2016-09-30T15:13:12.155Z,56.52
2016-09-30T15:14:22.457Z,56.6
2016-09-30T15:15:32.444Z,56.4
2016-09-30T15:16:42.431Z,56.5
2016-09-30T15:17:52.727Z,56.5
2016-09-30T15:19:02.724Z,56.27
2016-09-30T15:20:12.717Z,56.76
2016-09-30T15:21:22.727Z,56.47
2016-09-30T15:22:32.729Z,56.67
2016-09-30T15:23:42.730Z,56.57
2016-09-30T15:24:52.408Z,56.96
2016-09-30T15:26:02.728Z,57.06
2016-09-30T15:27:13.024Z,57.06
2016-09-30T15:28:23.317Z,57.15
2016-09-30T15:29:33.323Z,56.76
2016-09-30T15:30:43.645Z,56.84
2016-09-30T15:31:53.642Z,56.67
2016-09-30T15:33:03.929Z,57.32
2016-09-30T15:34:13.931Z,56.74
2016-09-30T15:35:23.948Z,56.54
2016-09-30T15:36:33.952Z,56.74
2016-09-30T15:37:43.940Z,57.12
2016-09-30T15:38:53.937Z,57.29
2016-09-30T15:40:03.924Z,57.2
2016-09-30T15:41:13.910Z,57.29
2016-09-30T15:42:23.912Z,57.1
2016-09-30T15:43:33.926Z,57.29